createdAt,value
2019-04-29T00:00:03.644Z,1006.48
2019-04-29T00:01:03.630Z,1006.48
2019-04-29T00:02:03.618Z,1006.54
2019-04-29T00:03:03.608Z,1006.51
2019-04-29T00:04:03.592Z,1006.52
2019-04-29T00:05:03.585Z,1006.53
2019-04-29T00:06:03.568Z,1006.54
2019-04-29T00:07:03.554Z,1006.58
2019-04-29T00:08:03.542Z,1006.55
2019-04-29T00:09:03.529Z,1006.58
2019-04-29T00:10:03.516Z,1006.58
2019-04-29T00:11:03.509Z,1006.56
2019-04-29T00:12:03.490Z,1006.60
2019-04-29T00:13:03.479Z,1006.57
2019-04-29T00:14:03.465Z,1006.55
2019-04-29T00:15:03.452Z,1006.58
2019-04-29T00:16:03.438Z,1006.57
2019-04-29T00:17:03.427Z,1006.60
2019-04-29T00:18:03.414Z,1006.61
2019-04-29T00:19:03.399Z,1006.60
2019-04-29T00:20:03.389Z,1006.64
2019-04-29T00:21:03.387Z,1006.66
2019-04-29T00:22:03.361Z,1006.65
2019-04-29T00:23:03.348Z,1006.68
2019-04-29T00:24:04.325Z,1006.64
2019-04-29T00:25:03.328Z,1006.66
2019-04-29T00:26:03.310Z,1006.63
2019-04-29T00:27:03.296Z,1006.69
2019-04-29T00:28:03.284Z,1006.69
2019-04-29T00:29:03.270Z,1006.66
2019-04-29T00:30:03.262Z,1006.70
2019-04-29T00:31:03.244Z,1006.67
2019-04-29T00:32:03.234Z,1006.69
2019-04-29T00:33:03.226Z,1006.70
2019-04-29T00:34:03.212Z,1006.70
2019-04-29T00:35:03.192Z,1006.69
2019-04-29T00:36:03.183Z,1006.68
2019-04-29T00:37:03.168Z,1006.70
2019-04-29T00:38:03.155Z,1006.73
2019-04-29T00:39:03.146Z,1006.74
2019-04-29T00:40:03.133Z,1006.78
2019-04-29T00:41:03.115Z,1006.78
2019-04-29T00:42:03.107Z,1006.80
2019-04-29T00:43:03.089Z,1006.79
2019-04-29T00:44:03.085Z,1006.84
2019-04-29T00:45:03.066Z,1006.84
2019-04-29T00:46:03.050Z,1006.82
2019-04-29T00:47:03.038Z,1006.86
2019-04-29T00:48:03.025Z,1006.86
2019-04-29T00:49:03.013Z,1006.86
2019-04-29T00:50:02.999Z,1006.93
2019-04-29T00:51:02.986Z,1006.94
2019-04-29T00:52:02.975Z,1006.92
2019-04-29T00:53:02.959Z,1006.96
2019-04-29T00:54:02.947Z,1006.97
2019-04-29T00:55:02.938Z,1006.98
2019-04-29T00:56:02.920Z,1006.97
2019-04-29T00:57:02.908Z,1006.98
2019-04-29T00:58:02.896Z,1007.01
2019-04-29T00:59:02.931Z,1007.00
2019-04-29T01:00:02.869Z,1007.00
2019-04-29T01:01:02.857Z,1007.00
2019-04-29T01:02:02.848Z,1006.97
2019-04-29T01:03:02.831Z,1006.98
2019-04-29T01:04:02.818Z,1006.96
2019-04-29T01:05:02.805Z,1007.02
2019-04-29T01:06:02.792Z,1007.00
2019-04-29T01:07:02.779Z,1007.02
2019-04-29T01:08:02.766Z,1006.99
2019-04-29T01:09:02.754Z,1007.00
2019-04-29T01:10:02.743Z,1006.96
2019-04-29T01:11:02.728Z,1006.97
2019-04-29T01:12:02.715Z,1006.98
2019-04-29T01:13:02.708Z,1006.94
2019-04-29T01:14:02.695Z,1006.96
2019-04-29T01:15:02.677Z,1006.97
2019-04-29T01:16:02.664Z,1006.96
2019-04-29T01:17:02.651Z,1006.94
2019-04-29T01:18:02.640Z,1006.98
2019-04-29T01:19:04.018Z,1006.99
2019-04-29T01:20:02.612Z,1006.94
2019-04-29T01:21:02.600Z,1006.98
2019-04-29T01:22:02.587Z,1006.98
2019-04-29T01:23:02.574Z,1006.96
2019-04-29T01:24:02.562Z,1006.97
2019-04-29T01:25:02.548Z,1006.99
2019-04-29T01:26:02.536Z,1006.98
2019-04-29T01:27:02.524Z,1007.00
2019-04-29T01:28:02.510Z,1007.02
2019-04-29T01:29:02.500Z,1006.98
2019-04-29T01:30:02.493Z,1007.01
2019-04-29T01:31:02.473Z,1007.00
2019-04-29T01:32:02.458Z,1007.00
2019-04-29T01:33:02.446Z,1007.04
2019-04-29T01:34:02.438Z,1007.05
2019-04-29T01:35:02.438Z,1007.05
2019-04-29T01:36:02.406Z,1007.07
2019-04-29T01:37:02.394Z,1007.05
2019-04-29T01:38:02.382Z,1007.08
2019-04-29T01:39:02.367Z,1007.10
2019-04-29T01:40:02.358Z,1007.10
2019-04-29T01:41:02.343Z,1007.09
2019-04-29T01:42:02.329Z,1007.12
2019-04-29T01:43:02.316Z,1007.11
2019-04-29T01:44:02.301Z,1007.11
2019-04-29T01:45:02.289Z,1007.09
2019-04-29T01:46:02.276Z,1007.12
2019-04-29T01:47:02.262Z,1007.10
2019-04-29T01:48:02.249Z,1007.08
2019-04-29T01:49:02.236Z,1007.10
2019-04-29T01:50:02.223Z,1007.10
2019-04-29T01:51:02.216Z,1007.09
2019-04-29T01:52:02.203Z,1007.02
2019-04-29T01:53:02.183Z,1007.05
2019-04-29T01:54:02.180Z,1007.07
2019-04-29T01:55:02.156Z,1007.06
2019-04-29T01:56:02.144Z,1007.10
2019-04-29T01:57:02.131Z,1007.11
2019-04-29T01:58:02.119Z,1007.08
2019-04-29T01:59:02.107Z,1007.09
2019-04-29T02:00:02.091Z,1007.07
2019-04-29T02:01:02.079Z,1007.09
2019-04-29T02:02:02.065Z,1007.10
2019-04-29T02:03:02.052Z,1007.09
2019-04-29T02:04:02.041Z,1007.10
2019-04-29T02:05:02.102Z,1007.13
2019-04-29T02:06:02.013Z,1007.14
2019-04-29T02:07:02.002Z,1007.13
2019-04-29T02:08:01.986Z,1007.12
2019-04-29T02:09:01.974Z,1007.14
2019-04-29T02:10:01.961Z,1007.15
2019-04-29T02:11:01.946Z,1007.16
2019-04-29T02:12:01.933Z,1007.17
2019-04-29T02:13:01.922Z,1007.18
2019-04-29T02:14:01.917Z,1007.20
2019-04-29T02:15:01.895Z,1007.19
2019-04-29T02:16:01.880Z,1007.22
2019-04-29T02:17:01.868Z,1007.18
2019-04-29T02:18:01.860Z,1007.21
2019-04-29T02:19:01.839Z,1007.21
2019-04-29T02:20:01.827Z,1007.22
2019-04-29T02:21:01.814Z,1007.23
2019-04-29T02:22:01.800Z,1007.20
2019-04-29T02:23:01.789Z,1007.21
2019-04-29T02:24:01.774Z,1007.24
2019-04-29T02:25:01.831Z,1007.20
2019-04-29T02:26:01.749Z,1007.19
2019-04-29T02:27:01.736Z,1007.24
2019-04-29T02:28:01.721Z,1007.25
2019-04-29T02:29:02.765Z,1007.26
2019-04-29T02:30:01.713Z,1007.28
2019-04-29T02:31:01.703Z,1007.25
2019-04-29T02:32:01.679Z,1007.29
2019-04-29T02:33:01.659Z,1007.28
2019-04-29T02:34:01.648Z,1007.30
2019-04-29T02:35:01.690Z,1007.29
2019-04-29T02:36:01.690Z,1007.28
2019-04-29T02:37:01.604Z,1007.25
2019-04-29T02:38:01.592Z,1007.27
2019-04-29T02:39:01.581Z,1007.27
2019-04-29T02:40:01.564Z,1007.24
2019-04-29T02:41:01.557Z,1007.26
2019-04-29T02:42:01.552Z,1007.24
2019-04-29T02:43:01.524Z,1007.22
2019-04-29T02:44:01.513Z,1007.23
2019-04-29T02:45:01.516Z,1007.25
2019-04-29T02:46:01.484Z,1007.27
2019-04-29T02:47:01.482Z,1007.26
2019-04-29T02:48:01.469Z,1007.28
2019-04-29T02:49:01.444Z,1007.28
2019-04-29T02:50:01.443Z,1007.27
2019-04-29T02:51:01.527Z,1007.26
2019-04-29T02:52:01.414Z,1007.25
2019-04-29T02:53:01.391Z,1007.29
2019-04-29T02:54:01.378Z,1007.31
2019-04-29T02:55:01.385Z,1007.27
2019-04-29T02:56:01.374Z,1007.28
2019-04-29T02:57:01.341Z,1007.28
2019-04-29T02:58:01.328Z,1007.29
2019-04-29T02:59:01.680Z,1007.28
2019-04-29T03:00:01.316Z,1007.23
2019-04-29T03:01:01.361Z,1007.26
2019-04-29T03:02:01.272Z,1007.21
2019-04-29T03:03:01.260Z,1007.23
2019-04-29T03:04:01.243Z,1007.21
2019-04-29T03:05:01.246Z,1007.20
2019-04-29T03:06:01.220Z,1007.17
2019-04-29T03:07:01.203Z,1007.18
2019-04-29T03:08:01.229Z,1007.17
2019-04-29T03:09:01.182Z,1007.21
2019-04-29T03:10:01.315Z,1007.17
2019-04-29T03:11:01.152Z,1007.19
2019-04-29T03:12:01.930Z,1007.16
2019-04-29T03:13:01.126Z,1007.22
2019-04-29T03:14:01.111Z,1007.22
2019-04-29T03:15:01.103Z,1007.19
2019-04-29T03:16:01.083Z,1007.24
2019-04-29T03:17:01.074Z,1007.22
2019-04-29T03:18:01.059Z,1007.22
2019-04-29T03:19:02.747Z,1007.21
2019-04-29T03:20:01.031Z,1007.23
2019-04-29T03:21:01.017Z,1007.24
2019-04-29T03:22:01.004Z,1007.23
2019-04-29T03:23:00.991Z,1007.26
2019-04-29T03:24:00.982Z,1007.33
2019-04-29T03:25:00.963Z,1007.33
2019-04-29T03:26:00.948Z,1007.31
2019-04-29T03:27:00.960Z,1007.34
2019-04-29T03:28:00.922Z,1007.33
2019-04-29T03:29:00.909Z,1007.34
2019-04-29T03:30:00.921Z,1007.33
2019-04-29T03:31:00.884Z,1007.33
2019-04-29T03:32:00.879Z,1007.31
2019-04-29T03:33:00.875Z,1007.31
2019-04-29T03:34:00.872Z,1007.30
2019-04-29T03:35:00.837Z,1007.31
2019-04-29T03:36:01.233Z,1007.31
2019-04-29T03:37:00.880Z,1007.29
2019-04-29T03:38:00.789Z,1007.31
2019-04-29T03:39:00.772Z,1007.30
2019-04-29T03:40:00.761Z,1007.34
2019-04-29T03:41:00.747Z,1007.35
2019-04-29T03:42:00.733Z,1007.38
2019-04-29T03:43:00.730Z,1007.39
2019-04-29T03:44:00.707Z,1007.39
2019-04-29T03:45:00.692Z,1007.42
2019-04-29T03:46:00.689Z,1007.41
2019-04-29T03:47:00.666Z,1007.42
2019-04-29T03:48:00.653Z,1007.42
2019-04-29T03:49:00.647Z,1007.39
2019-04-29T03:50:00.635Z,1007.44
2019-04-29T03:51:00.623Z,1007.46
2019-04-29T03:52:00.606Z,1007.45
2019-04-29T03:53:00.994Z,1007.42
2019-04-29T03:54:00.573Z,1007.42
2019-04-29T03:55:00.560Z,1007.45
2019-04-29T03:56:00.544Z,1007.42
2019-04-29T03:57:00.534Z,1007.46
2019-04-29T03:58:00.518Z,1007.44
2019-04-29T03:59:00.504Z,1007.46
2019-04-29T04:00:00.498Z,1007.44
2019-04-29T04:01:00.481Z,1007.40
2019-04-29T04:02:00.523Z,1007.44
2019-04-29T04:03:00.449Z,1007.43
2019-04-29T04:04:00.444Z,1007.42
2019-04-29T04:05:00.427Z,1007.40
2019-04-29T04:06:00.410Z,1007.41
2019-04-29T04:07:03.887Z,1007.40
2019-04-29T04:08:00.396Z,1007.41
2019-04-29T04:09:05.981Z,1007.44
2019-04-29T04:10:00.373Z,1007.40
2019-04-29T04:11:00.342Z,1007.46
2019-04-29T04:12:00.331Z,1007.47
2019-04-29T04:13:00.316Z,1007.47
2019-04-29T04:14:02.553Z,1007.46
2019-04-29T04:15:00.292Z,1007.48
2019-04-29T04:16:00.276Z,1007.49
2019-04-29T04:17:00.262Z,1007.50
2019-04-29T04:18:00.257Z,1007.53
2019-04-29T04:19:00.235Z,1007.52
2019-04-29T04:20:00.320Z,1007.54
2019-04-29T04:21:00.216Z,1007.53
2019-04-29T04:22:00.198Z,1007.55
2019-04-29T04:23:00.188Z,1007.53
2019-04-29T04:24:00.166Z,1007.56
2019-04-29T04:25:00.157Z,1007.54
2019-04-29T04:26:00.191Z,1007.58
2019-04-29T04:27:00.217Z,1007.58
2019-04-29T04:28:00.128Z,1007.57
2019-04-29T04:29:00.121Z,1007.57
2019-04-29T04:30:00.102Z,1007.57
2019-04-29T04:31:00.072Z,1007.54
2019-04-29T04:32:00.063Z,1007.55
2019-04-29T04:33:00.051Z,1007.55
2019-04-29T04:34:00.035Z,1007.57
2019-04-29T04:35:00.039Z,1007.57
2019-04-29T04:36:00.009Z,1007.60
2019-04-29T04:37:00.516Z,1007.55
2019-04-29T04:37:59.983Z,1007.57
2019-04-29T04:38:59.967Z,1007.58
2019-04-29T04:39:59.955Z,1007.57
2019-04-29T04:40:59.945Z,1007.59
2019-04-29T04:41:59.923Z,1007.62
2019-04-29T04:42:59.911Z,1007.64
2019-04-29T04:43:59.896Z,1007.68
2019-04-29T04:44:59.888Z,1007.67
2019-04-29T04:45:59.870Z,1007.68
2019-04-29T04:46:59.859Z,1007.68
2019-04-29T04:47:59.851Z,1007.69
2019-04-29T04:48:59.829Z,1007.67
2019-04-29T04:49:59.817Z,1007.68
2019-04-29T04:50:59.804Z,1007.66
2019-04-29T04:51:59.787Z,1007.71
2019-04-29T04:52:59.777Z,1007.66
2019-04-29T04:53:59.768Z,1007.67
2019-04-29T04:54:59.746Z,1007.67
2019-04-29T04:55:59.733Z,1007.71
2019-04-29T04:56:59.719Z,1007.73
2019-04-29T04:57:59.710Z,1007.73
2019-04-29T04:58:59.702Z,1007.74
2019-04-29T04:59:59.679Z,1007.77
2019-04-29T05:00:59.666Z,1007.80
2019-04-29T05:01:59.661Z,1007.83
2019-04-29T05:02:59.689Z,1007.83
2019-04-29T05:03:59.626Z,1007.84
2019-04-29T05:04:59.615Z,1007.82
2019-04-29T05:05:59.600Z,1007.86
2019-04-29T05:06:59.586Z,1007.85
2019-04-29T05:07:59.643Z,1007.89
2019-04-29T05:08:59.563Z,1007.88
2019-04-29T05:09:59.547Z,1007.89
2019-04-29T05:10:59.533Z,1007.89
2019-04-29T05:11:59.520Z,1007.93
2019-04-29T05:12:59.509Z,1007.94
2019-04-29T05:13:59.494Z,1007.96
2019-04-29T05:14:59.480Z,1007.99
2019-04-29T05:15:59.467Z,1007.98
2019-04-29T05:16:59.463Z,1007.96
2019-04-29T05:17:59.443Z,1007.98
2019-04-29T05:18:59.429Z,1007.98
2019-04-29T05:19:59.416Z,1008.01
2019-04-29T05:20:59.402Z,1007.98
2019-04-29T05:21:59.391Z,1007.98
2019-04-29T05:22:59.470Z,1007.98
2019-04-29T05:23:59.363Z,1008.01
2019-04-29T05:24:59.350Z,1007.99
2019-04-29T05:25:59.337Z,1008.02
2019-04-29T05:26:59.323Z,1008.08
2019-04-29T05:27:59.311Z,1008.05
2019-04-29T05:28:59.299Z,1008.10
2019-04-29T05:29:59.286Z,1008.12
2019-04-29T05:30:59.276Z,1008.12
2019-04-29T05:31:59.259Z,1008.13
2019-04-29T05:32:59.247Z,1008.13
2019-04-29T05:33:59.234Z,1008.15
2019-04-29T05:34:59.220Z,1008.18
2019-04-29T05:36:01.916Z,1008.19
2019-04-29T05:36:59.194Z,1008.17
2019-04-29T05:37:59.182Z,1008.18
2019-04-29T05:38:59.169Z,1008.18
2019-04-29T05:39:59.158Z,1008.18
2019-04-29T05:40:59.144Z,1008.23
2019-04-29T05:41:59.130Z,1008.21
2019-04-29T05:42:59.117Z,1008.22
2019-04-29T05:43:59.105Z,1008.22
2019-04-29T05:44:59.092Z,1008.27
2019-04-29T05:45:59.080Z,1008.29
2019-04-29T05:46:59.070Z,1008.32
2019-04-29T05:47:59.055Z,1008.34
2019-04-29T05:49:02.480Z,1008.36
2019-04-29T05:49:59.030Z,1008.34
2019-04-29T05:50:59.017Z,1008.38
2019-04-29T05:52:01.860Z,1008.41
2019-04-29T05:52:58.997Z,1008.43
2019-04-29T05:53:58.981Z,1008.42
2019-04-29T05:55:01.468Z,1008.50
2019-04-29T05:55:58.957Z,1008.47
2019-04-29T05:56:58.944Z,1008.46
2019-04-29T05:58:02.996Z,1008.47
2019-04-29T05:58:58.919Z,1008.44
2019-04-29T05:59:58.909Z,1008.49
2019-04-29T06:00:58.896Z,1008.51
2019-04-29T06:01:58.885Z,1008.49
2019-04-29T06:02:58.873Z,1008.50
2019-04-29T06:03:58.860Z,1008.50
2019-04-29T06:04:58.849Z,1008.52
2019-04-29T06:05:58.837Z,1008.46
2019-04-29T06:06:58.825Z,1008.51
2019-04-29T06:08:01.139Z,1008.54
2019-04-29T06:08:58.801Z,1008.54
2019-04-29T06:09:58.796Z,1008.52
2019-04-29T06:10:58.779Z,1008.53
2019-04-29T06:11:58.766Z,1008.54
2019-04-29T06:12:58.756Z,1008.55
2019-04-29T06:13:58.744Z,1008.59
2019-04-29T06:14:58.736Z,1008.61
2019-04-29T06:15:58.720Z,1008.63
2019-04-29T06:17:02.909Z,1008.66
2019-04-29T06:17:58.698Z,1008.64
2019-04-29T06:19:00.405Z,1008.68
2019-04-29T06:19:58.675Z,1008.67
2019-04-29T06:21:08.674Z,1008.68
2019-04-29T06:21:58.653Z,1008.67
2019-04-29T06:22:58.642Z,1008.69
2019-04-29T06:23:59.309Z,1008.71
2019-04-29T06:24:58.620Z,1008.70
2019-04-29T06:25:58.610Z,1008.69
2019-04-29T06:26:58.598Z,1008.67
2019-04-29T06:27:58.587Z,1008.66
2019-04-29T06:28:58.576Z,1008.65
2019-04-29T06:30:02.873Z,1008.67
2019-04-29T06:30:58.554Z,1008.72
2019-04-29T06:31:58.545Z,1008.73
2019-04-29T06:32:58.533Z,1008.72
2019-04-29T06:34:00.649Z,1008.74
2019-04-29T06:34:58.510Z,1008.74
2019-04-29T06:35:58.500Z,1008.74
2019-04-29T06:36:58.492Z,1008.75
2019-04-29T06:37:58.479Z,1008.75
2019-04-29T06:38:58.467Z,1008.75
2019-04-29T06:39:58.457Z,1008.76
2019-04-29T06:40:58.453Z,1008.78
2019-04-29T06:41:58.437Z,1008.78
2019-04-29T06:42:58.425Z,1008.77
2019-04-29T06:44:00.626Z,1008.78
2019-04-29T06:44:58.406Z,1008.80
2019-04-29T06:45:58.395Z,1008.79
2019-04-29T06:46:58.384Z,1008.82
2019-04-29T06:47:58.374Z,1008.79
2019-04-29T06:49:09.589Z,1008.80
2019-04-29T06:49:58.354Z,1008.82
2019-04-29T06:50:58.343Z,1008.83
2019-04-29T06:51:58.350Z,1008.82
2019-04-29T06:52:58.326Z,1008.88
2019-04-29T06:53:58.315Z,1008.89
2019-04-29T06:54:58.304Z,1008.86
2019-04-29T06:55:58.298Z,1008.86
2019-04-29T06:56:58.288Z,1008.87
2019-04-29T06:57:58.278Z,1008.90
2019-04-29T06:58:58.268Z,1008.91
2019-04-29T06:59:58.259Z,1008.94
2019-04-29T07:01:01.198Z,1008.92
2019-04-29T07:01:58.242Z,1008.93
2019-04-29T07:02:58.233Z,1008.91
2019-04-29T07:03:59.906Z,1008.91
2019-04-29T07:04:58.218Z,1008.91
2019-04-29T07:05:58.210Z,1008.97
2019-04-29T07:06:58.201Z,1008.98
2019-04-29T07:07:58.194Z,1009.00
2019-04-29T07:08:58.187Z,1009.02
2019-04-29T07:09:58.181Z,1009.07
2019-04-29T07:11:01.000Z,1009.05
2019-04-29T07:12:01.516Z,1009.05
2019-04-29T07:12:58.165Z,1009.03
2019-04-29T07:13:59.352Z,1009.06
2019-04-29T07:14:58.149Z,1009.04
2019-04-29T07:15:58.145Z,1009.01
2019-04-29T07:17:00.840Z,1008.99
2019-04-29T07:17:58.136Z,1009.01
2019-04-29T07:18:58.131Z,1009.02
2019-04-29T07:20:02.096Z,1009.02
2019-04-29T07:20:58.123Z,1008.98
2019-04-29T07:21:58.121Z,1008.99
2019-04-29T07:23:00.789Z,1009.00
2019-04-29T07:23:58.119Z,1009.05
2019-04-29T07:24:58.111Z,1009.02
2019-04-29T07:25:58.109Z,1009.02
2019-04-29T07:27:02.833Z,1009.05
2019-04-29T07:27:58.106Z,1009.02
2019-04-29T07:28:58.108Z,1009.09
2019-04-29T07:30:01.682Z,1009.12
2019-04-29T07:31:02.811Z,1009.15
2019-04-29T07:31:58.098Z,1009.18
2019-04-29T07:32:58.099Z,1009.17
2019-04-29T07:33:59.089Z,1009.21
2019-04-29T07:34:58.097Z,1009.17
2019-04-29T07:36:10.310Z,1009.15
2019-04-29T07:36:59.483Z,1009.16
2019-04-29T07:37:58.100Z,1009.18
2019-04-29T07:38:58.095Z,1009.19
2019-04-29T07:39:58.097Z,1009.18
2019-04-29T07:40:58.097Z,1009.18
2019-04-29T07:41:58.098Z,1009.22
2019-04-29T07:42:58.100Z,1009.24
2019-04-29T07:43:58.099Z,1009.25
2019-04-29T07:44:58.100Z,1009.25
2019-04-29T07:45:58.739Z,1009.28
2019-04-29T07:47:01.988Z,1009.29
2019-04-29T07:48:01.715Z,1009.30
2019-04-29T07:49:01.567Z,1009.29
2019-04-29T07:49:58.127Z,1009.29
2019-04-29T07:50:59.540Z,1009.30
2019-04-29T07:51:58.111Z,1009.30
2019-04-29T07:52:58.114Z,1009.29
2019-04-29T07:53:58.116Z,1009.30
2019-04-29T07:54:58.119Z,1009.32
2019-04-29T07:56:01.727Z,1009.33
2019-04-29T07:56:58.125Z,1009.31
2019-04-29T07:57:58.127Z,1009.29
2019-04-29T07:58:58.974Z,1009.28
2019-04-29T07:59:58.136Z,1009.25
2019-04-29T08:00:58.142Z,1009.26
2019-04-29T08:01:59.780Z,1009.31
2019-04-29T08:02:58.143Z,1009.30
2019-04-29T08:03:58.150Z,1009.31
2019-04-29T08:04:58.151Z,1009.30
2019-04-29T08:05:58.155Z,1009.27
2019-04-29T08:06:58.162Z,1009.27
2019-04-29T08:07:58.163Z,1009.30
2019-04-29T08:09:05.885Z,1009.27
2019-04-29T08:09:58.172Z,1009.28
2019-04-29T08:10:58.175Z,1009.31
2019-04-29T08:11:58.181Z,1009.33
2019-04-29T08:12:58.184Z,1009.33
2019-04-29T08:13:58.190Z,1009.34
2019-04-29T08:15:07.283Z,1009.34
2019-04-29T08:15:58.201Z,1009.34
2019-04-29T08:16:58.207Z,1009.35
2019-04-29T08:18:06.358Z,1009.33
2019-04-29T08:18:58.216Z,1009.36
2019-04-29T08:20:00.713Z,1009.33
2019-04-29T08:20:58.273Z,1009.35
2019-04-29T08:21:58.231Z,1009.35
2019-04-29T08:22:58.556Z,1009.35
2019-04-29T08:23:58.242Z,1009.39
2019-04-29T08:24:58.249Z,1009.34
2019-04-29T08:26:02.430Z,1009.33
2019-04-29T08:26:58.260Z,1009.32
2019-04-29T08:27:58.266Z,1009.35
2019-04-29T08:29:00.388Z,1009.36
2019-04-29T08:29:58.278Z,1009.32
2019-04-29T08:30:58.285Z,1009.34
2019-04-29T08:32:02.202Z,1009.34
2019-04-29T08:32:58.297Z,1009.37
2019-04-29T08:33:58.301Z,1009.33
2019-04-29T08:35:03.149Z,1009.36
2019-04-29T08:35:58.314Z,1009.35
2019-04-29T08:36:58.321Z,1009.38
2019-04-29T08:37:58.328Z,1009.35
2019-04-29T08:39:08.261Z,1009.37
2019-04-29T08:40:14.758Z,1009.39
2019-04-29T08:40:58.347Z,1009.35
2019-04-29T08:41:58.799Z,1009.33
2019-04-29T08:42:58.360Z,1009.32
2019-04-29T08:44:15.270Z,1009.30
2019-04-29T08:44:59.660Z,1009.31
2019-04-29T08:45:58.386Z,1009.30
2019-04-29T08:46:58.388Z,1009.30
2019-04-29T08:47:58.396Z,1009.29
2019-04-29T08:49:01.044Z,1009.28
2019-04-29T08:49:58.411Z,1009.28
2019-04-29T08:50:58.420Z,1009.31
2019-04-29T08:51:58.427Z,1009.31
2019-04-29T08:52:58.433Z,1009.28
2019-04-29T08:53:58.461Z,1009.25
2019-04-29T08:54:58.447Z,1009.26
2019-04-29T08:55:58.457Z,1009.24
2019-04-29T08:57:02.831Z,1009.31
2019-04-29T08:57:58.472Z,1009.26
2019-04-29T08:58:58.479Z,1009.26
2019-04-29T08:59:58.487Z,1009.26
2019-04-29T09:00:58.495Z,1009.27
2019-04-29T09:01:58.503Z,1009.27
2019-04-29T09:02:58.511Z,1009.23
2019-04-29T09:03:59.160Z,1009.22
2019-04-29T09:04:58.528Z,1009.24
2019-04-29T09:06:05.440Z,1009.17
2019-04-29T09:07:11.804Z,1009.22
2019-04-29T09:07:59.063Z,1009.20
2019-04-29T09:08:59.738Z,1009.19
2019-04-29T09:10:01.778Z,1009.17
2019-04-29T09:10:58.574Z,1009.18
2019-04-29T09:11:58.578Z,1009.11
2019-04-29T09:12:58.588Z,1009.10
2019-04-29T09:13:58.588Z,1009.12
2019-04-29T09:14:58.594Z,1009.13
2019-04-29T09:15:58.597Z,1009.12
2019-04-29T09:16:58.601Z,1009.09
2019-04-29T09:17:58.605Z,1009.05
2019-04-29T09:18:58.609Z,1009.04
2019-04-29T09:19:58.614Z,1009.10
2019-04-29T09:20:58.618Z,1009.07
2019-04-29T09:21:58.624Z,1009.11
2019-04-29T09:22:58.627Z,1009.11
2019-04-29T09:23:58.640Z,1009.06
2019-04-29T09:24:58.638Z,1009.13
2019-04-29T09:26:02.911Z,1009.09
2019-04-29T09:26:58.652Z,1009.06
2019-04-29T09:27:58.651Z,1009.08
2019-04-29T09:28:59.755Z,1009.11
2019-04-29T09:30:00.247Z,1009.09
2019-04-29T09:30:58.663Z,1009.04
2019-04-29T09:31:58.666Z,1009.02
2019-04-29T09:32:58.669Z,1009.02
2019-04-29T09:34:06.272Z,1009.02
2019-04-29T09:34:59.469Z,1009.02
2019-04-29T09:35:58.684Z,1009.02
2019-04-29T09:36:58.684Z,1009.05
2019-04-29T09:37:59.653Z,1009.05
2019-04-29T09:38:58.689Z,1008.99
2019-04-29T09:39:58.694Z,1009.04
2019-04-29T09:40:59.609Z,1008.98
2019-04-29T09:41:58.702Z,1008.96
2019-04-29T09:42:58.705Z,1009.00
2019-04-29T09:43:59.184Z,1008.98
2019-04-29T09:44:58.713Z,1008.95
2019-04-29T09:46:00.220Z,1008.94
2019-04-29T09:46:58.788Z,1008.90
2019-04-29T09:47:58.722Z,1008.94
2019-04-29T09:48:58.725Z,1008.91
2019-04-29T09:49:58.724Z,1008.94
2019-04-29T09:50:58.724Z,1008.97
2019-04-29T09:51:58.728Z,1008.91
2019-04-29T09:52:58.732Z,1008.97
2019-04-29T09:53:58.735Z,1008.97
2019-04-29T09:54:59.577Z,1008.95
2019-04-29T09:55:58.744Z,1008.93
2019-04-29T09:56:58.750Z,1008.97
2019-04-29T09:57:58.760Z,1009.03
2019-04-29T09:58:58.760Z,1008.99
2019-04-29T10:00:00.139Z,1008.99
2019-04-29T10:00:58.821Z,1008.91
2019-04-29T10:01:58.778Z,1008.89
2019-04-29T10:02:58.782Z,1008.83
2019-04-29T10:03:58.789Z,1008.92
2019-04-29T10:04:58.791Z,1008.88
2019-04-29T10:05:58.796Z,1008.92
2019-04-29T10:06:58.799Z,1008.90
2019-04-29T10:07:58.804Z,1008.93
2019-04-29T10:08:58.810Z,1008.90
2019-04-29T10:10:02.330Z,1008.89
2019-04-29T10:10:58.822Z,1008.85
2019-04-29T10:11:58.828Z,1008.87
2019-04-29T10:12:58.835Z,1008.88
2019-04-29T10:13:58.842Z,1008.92
2019-04-29T10:14:58.851Z,1008.81
2019-04-29T10:16:00.445Z,1008.88
2019-04-29T10:16:58.865Z,1008.80
2019-04-29T10:17:58.875Z,1008.86
2019-04-29T10:19:00.617Z,1008.79
2019-04-29T10:19:58.883Z,1008.78
2019-04-29T10:20:58.889Z,1008.71
2019-04-29T10:21:58.893Z,1008.75
2019-04-29T10:22:58.896Z,1008.81
2019-04-29T10:23:58.901Z,1008.81
2019-04-29T10:24:58.910Z,1008.81
2019-04-29T10:25:58.910Z,1008.79
2019-04-29T10:26:58.915Z,1008.81
2019-04-29T10:27:58.920Z,1008.79
2019-04-29T10:28:58.927Z,1008.72
2019-04-29T10:29:58.933Z,1008.78
2019-04-29T10:30:58.939Z,1008.77
2019-04-29T10:32:02.446Z,1008.74
2019-04-29T10:32:58.948Z,1008.72
2019-04-29T10:33:58.956Z,1008.74
2019-04-29T10:34:58.956Z,1008.82
2019-04-29T10:35:58.962Z,1008.76
2019-04-29T10:36:58.963Z,1008.70
2019-04-29T10:38:02.834Z,1008.75
2019-04-29T10:38:58.975Z,1008.67
2019-04-29T10:40:10.516Z,1008.63
2019-04-29T10:41:00.566Z,1008.62
2019-04-29T10:41:58.976Z,1008.73
2019-04-29T10:42:58.977Z,1008.72
2019-04-29T10:43:58.979Z,1008.72
2019-04-29T10:44:58.984Z,1008.72
2019-04-29T10:45:58.986Z,1008.67
2019-04-29T10:46:58.991Z,1008.76
2019-04-29T10:47:58.994Z,1008.69
2019-04-29T10:49:03.463Z,1008.76
2019-04-29T10:49:59.004Z,1008.68
2019-04-29T10:50:59.009Z,1008.65
2019-04-29T10:52:02.828Z,1008.61
2019-04-29T10:52:59.022Z,1008.66
2019-04-29T10:53:59.030Z,1008.70
2019-04-29T10:54:59.038Z,1008.66
2019-04-29T10:56:00.925Z,1008.65
2019-04-29T10:56:59.051Z,1008.67
2019-04-29T10:57:59.059Z,1008.67
2019-04-29T10:58:59.065Z,1008.69
2019-04-29T11:00:01.035Z,1008.58
2019-04-29T11:00:59.081Z,1008.55
2019-04-29T11:02:01.613Z,1008.59
2019-04-29T11:02:59.094Z,1008.61
2019-04-29T11:04:00.717Z,1008.59
2019-04-29T11:05:02.358Z,1008.54
2019-04-29T11:06:01.763Z,1008.58
2019-04-29T11:06:59.116Z,1008.64
2019-04-29T11:08:02.526Z,1008.61
2019-04-29T11:08:59.127Z,1008.54
2019-04-29T11:09:59.133Z,1008.55
2019-04-29T11:11:02.441Z,1008.50
2019-04-29T11:11:59.143Z,1008.48
2019-04-29T11:12:59.148Z,1008.46
2019-04-29T11:14:01.597Z,1008.48
2019-04-29T11:15:01.626Z,1008.50
2019-04-29T11:15:59.160Z,1008.50
2019-04-29T11:16:59.168Z,1008.46
2019-04-29T11:18:03.042Z,1008.47
2019-04-29T11:19:00.282Z,1008.42
2019-04-29T11:19:59.171Z,1008.41
2019-04-29T11:20:59.175Z,1008.46
2019-04-29T11:22:02.172Z,1008.47
2019-04-29T11:22:59.183Z,1008.45
2019-04-29T11:23:59.187Z,1008.39
2019-04-29T11:24:59.193Z,1008.38
2019-04-29T11:25:59.197Z,1008.37
2019-04-29T11:27:11.193Z,1008.36
2019-04-29T11:27:59.206Z,1008.37
2019-04-29T11:28:59.212Z,1008.34
2019-04-29T11:30:03.145Z,1008.34
2019-04-29T11:30:59.210Z,1008.33
2019-04-29T11:31:59.212Z,1008.31
2019-04-29T11:32:59.969Z,1008.31
2019-04-29T11:33:59.214Z,1008.30
2019-04-29T11:34:59.221Z,1008.38
2019-04-29T11:36:03.347Z,1008.33
2019-04-29T11:36:59.219Z,1008.32
2019-04-29T11:37:59.946Z,1008.32
2019-04-29T11:38:59.230Z,1008.30
2019-04-29T11:39:59.230Z,1008.34
2019-04-29T11:40:59.233Z,1008.27
2019-04-29T11:42:00.100Z,1008.22
2019-04-29T11:42:59.242Z,1008.24
2019-04-29T11:43:59.251Z,1008.22
2019-04-29T11:45:01.994Z,1008.16
2019-04-29T11:45:59.259Z,1008.23
2019-04-29T11:46:59.261Z,1008.18
2019-04-29T11:47:59.265Z,1008.23
2019-04-29T11:48:59.268Z,1008.25
2019-04-29T11:49:59.270Z,1008.19
2019-04-29T11:50:59.271Z,1008.24
2019-04-29T11:52:09.282Z,1008.21
2019-04-29T11:52:59.273Z,1008.22
2019-04-29T11:53:59.273Z,1008.30
2019-04-29T11:54:59.273Z,1008.28
2019-04-29T11:55:59.273Z,1008.29
2019-04-29T11:56:59.274Z,1008.30
2019-04-29T11:57:59.276Z,1008.24
2019-04-29T11:58:59.337Z,1008.23
2019-04-29T11:59:59.279Z,1008.24
2019-04-29T12:00:59.282Z,1008.24
2019-04-29T12:01:59.736Z,1008.22
2019-04-29T12:02:59.288Z,1008.26
2019-04-29T12:03:59.293Z,1008.22
2019-04-29T12:04:59.296Z,1008.17